sensor_id;sensor_type;location;lat;lon;timestamp;pressure;altitude;pressure_sealevel;temperature;humidity
61337;BME280;47212;41.326;2.104;2024-02-15T00:03:24;102018.81;;;14.75;98.97
61337;BME280;47212;41.326;2.104;2024-02-15T00:08:32;102023.78;;;14.78;99.39
61337;BME280;47212;41.326;2.104;2024-02-15T00:13:35;102019.38;;;14.77;100.00
61337;BME280;47212;41.326;2.104;2024-02-15T00:18:38;102024.34;;;14.80;100.00
61337;BME280;47212;41.326;2.104;2024-02-15T00:23:42;102030.91;;;14.79;100.00
61337;BME280;47212;41.326;2.104;2024-02-15T00:28:45;102029.25;;;14.78;100.00
61337;BME280;47212;41.326;2.104;2024-02-15T00:33:47;102038.00;;;14.75;100.00
61337;BME280;47212;41.326;2.104;2024-02-15T00:38:57;102036.09;;;14.75;100.00
61337;BME280;47212;41.326;2.104;2024-02-15T00:44:03;102035.25;;;14.75;100.00
61337;BME280;47212;41.326;2.104;2024-02-15T00:49:13;102036.91;;;14.76;100.00
61337;BME280;47212;41.326;2.104;2024-02-15T00:54:17;102010.59;;;14.75;100.00
61337;BME280;47212;41.326;2.104;2024-02-15T00:59:20;101996.88;;;14.75;100.00
61337;BME280;47212;41.326;2.104;2024-02-15T01:04:23;101994.72;;;14.77;100.00
61337;BME280;47212;41.326;2.104;2024-02-15T01:09:25;102001.03;;;14.77;100.00
61337;BME280;47212;41.326;2.104;2024-02-15T01:14:30;102003.44;;;14.74;100.00
61337;BME280;47212;41.326;2.104;2024-02-15T01:19:41;102000.91;;;14.67;100.00
61337;BME280;47212;41.326;2.104;2024-02-15T01:24:47;102007.72;;;14.64;100.00
61337;BME280;47212;41.326;2.104;2024-02-15T01:29:50;101990.97;;;14.61;99.95
61337;BME280;47212;41.326;2.104;2024-02-15T01:34:56;102016.72;;;14.60;100.00
61337;BME280;47212;41.326;2.104;2024-02-15T01:39:59;102018.88;;;14.58;100.00
61337;BME280;47212;41.326;2.104;2024-02-15T01:45:07;102006.78;;;14.54;100.00
61337;BME280;47212;41.326;2.104;2024-02-15T01:50:15;102009.78;;;14.52;100.00
61337;BME280;47212;41.326;2.104;2024-02-15T01:55:21;102008.69;;;14.53;100.00
61337;BME280;47212;41.326;2.104;2024-02-15T02:05:20;102006.78;;;14.54;100.00
61337;BME280;47212;41.326;2.104;2024-02-15T02:10:23;101994.75;;;14.55;99.12
61337;BME280;47212;41.326;2.104;2024-02-15T02:15:26;101971.44;;;14.52;98.02
61337;BME280;47212;41.326;2.104;2024-02-15T02:20:28;101964.59;;;14.55;97.19
61337;BME280;47212;41.326;2.104;2024-02-15T02:25:31;101952.81;;;14.54;96.89
61337;BME280;47212;41.326;2.104;2024-02-15T02:30:33;101948.44;;;14.53;96.48
61337;BME280;47212;41.326;2.104;2024-02-15T02:35:36;101941.88;;;14.54;96.24
61337;BME280;47212;41.326;2.104;2024-02-15T02:40:39;101921.03;;;14.53;95.86
61337;BME280;47212;41.326;2.104;2024-02-15T02:45:44;101908.69;;;14.51;95.39
61337;BME280;47212;41.326;2.104;2024-02-15T02:50:49;101906.19;;;14.49;95.58
61337;BME280;47212;41.326;2.104;2024-02-15T02:56:00;101899.59;;;14.45;95.36
61337;BME280;47212;41.326;2.104;2024-02-15T03:01:06;101909.91;;;14.38;93.82
61337;BME280;47212;41.326;2.104;2024-02-15T03:06:12;101903.50;;;14.27;92.43
61337;BME280;47212;41.326;2.104;2024-02-15T03:11:14;101897.91;;;14.17;91.33
61337;BME280;47212;41.326;2.104;2024-02-15T03:16:24;101892.66;;;14.11;91.01
61337;BME280;47212;41.326;2.104;2024-02-15T03:21:28;101887.94;;;14.06;90.88
61337;BME280;47212;41.326;2.104;2024-02-15T03:26:33;101898.00;;;14.00;90.17
61337;BME280;47212;41.326;2.104;2024-02-15T03:31:39;101889.22;;;13.98;90.32
61337;BME280;47212;41.326;2.104;2024-02-15T03:36:42;101872.25;;;13.96;90.14
61337;BME280;47212;41.326;2.104;2024-02-15T03:41:45;101880.97;;;13.93;90.21
61337;BME280;47212;41.326;2.104;2024-02-15T03:46:58;101872.69;;;13.88;89.72
61337;BME280;47212;41.326;2.104;2024-02-15T03:52:04;101867.44;;;13.87;89.56
61337;BME280;47212;41.326;2.104;2024-02-15T03:57:09;101868.53;;;13.86;89.33
61337;BME280;47212;41.326;2.104;2024-02-15T04:02:13;101869.88;;;13.83;89.16
61337;BME280;47212;41.326;2.104;2024-02-15T04:07:19;101868.22;;;13.82;88.95
61337;BME280;47212;41.326;2.104;2024-02-15T04:12:21;101866.00;;;13.79;88.84
61337;BME280;47212;41.326;2.104;2024-02-15T04:17:26;101856.66;;;13.75;88.42
61337;BME280;47212;41.326;2.104;2024-02-15T04:22:29;101860.97;;;13.71;88.02
61337;BME280;47212;41.326;2.104;2024-02-15T04:27:49;101858.75;;;13.68;87.89
61337;BME280;47212;41.326;2.104;2024-02-15T04:32:52;101851.06;;;13.65;87.43
61337;BME280;47212;41.326;2.104;2024-02-15T04:37:55;101855.44;;;13.66;87.67
61337;BME280;47212;41.326;2.104;2024-02-15T04:42:58;101859.31;;;13.70;88.07
61337;BME280;47212;41.326;2.104;2024-02-15T04:48:05;101865.94;;;13.74;88.47
61337;BME280;47212;41.326;2.104;2024-02-15T04:53:16;101863.25;;;13.79;88.86
61337;BME280;47212;41.326;2.104;2024-02-15T04:58:22;101847.16;;;13.83;89.85
61337;BME280;47212;41.326;2.104;2024-02-15T05:03:28;101842.81;;;13.87;89.79
61337;BME280;47212;41.326;2.104;2024-02-15T05:08:30;101844.25;;;13.89;89.88
61337;BME280;47212;41.326;2.104;2024-02-15T05:13:36;101851.94;;;13.92;89.81
61337;BME280;47212;41.326;2.104;2024-02-15T05:33:24;101863.97;;;13.91;90.65
61337;BME280;47212;41.326;2.104;2024-02-15T05:38:28;101853.59;;;13.93;91.83
61337;BME280;47212;41.326;2.104;2024-02-15T05:43:37;101854.16;;;13.95;93.05
61337;BME280;47212;41.326;2.104;2024-02-15T05:48:40;101846.78;;;13.96;94.20
61337;BME280;47212;41.326;2.104;2024-02-15T05:53:43;101848.44;;;13.97;94.88
61337;BME280;47212;41.326;2.104;2024-02-15T05:58:48;101831.44;;;13.95;95.21
61337;BME280;47212;41.326;2.104;2024-02-15T06:03:51;101840.47;;;13.95;95.01
61337;BME280;47212;41.326;2.104;2024-02-15T06:09:06;101827.63;;;13.96;95.00
61337;BME280;47212;41.326;2.104;2024-02-15T06:14:09;101826.53;;;13.97;95.30
61337;BME280;47212;41.326;2.104;2024-02-15T06:19:11;101831.50;;;14.00;95.33
61337;BME280;47212;41.326;2.104;2024-02-15T06:24:14;101839.44;;;14.01;94.44
61337;BME280;47212;41.326;2.104;2024-02-15T06:29:16;101841.31;;;13.96;93.29
61337;BME280;47212;41.326;2.104;2024-02-15T06:34:37;101845.91;;;13.90;92.13
61337;BME280;47212;41.326;2.104;2024-02-15T06:39:59;101849.16;;;13.87;90.99
61337;BME280;47212;41.326;2.104;2024-02-15T06:45:04;101851.28;;;13.85;90.19
61337;BME280;47212;41.326;2.104;2024-02-15T06:50:07;101844.16;;;13.84;89.50
61337;BME280;47212;41.326;2.104;2024-02-15T06:55:12;101841.41;;;13.84;89.26
61337;BME280;47212;41.326;2.104;2024-02-15T07:00:19;101850.72;;;13.83;89.08
61337;BME280;47212;41.326;2.104;2024-02-15T07:05:25;101849.56;;;13.79;88.84
61337;BME280;47212;41.326;2.104;2024-02-15T07:10:33;101855.63;;;13.81;89.20
61337;BME280;47212;41.326;2.104;2024-02-15T07:15:39;101858.34;;;13.81;89.03
61337;BME280;47212;41.326;2.104;2024-02-15T07:20:42;101864.91;;;13.80;88.65
61337;BME280;47212;41.326;2.104;2024-02-15T07:25:44;101869.56;;;13.80;87.91
61337;BME280;47212;41.326;2.104;2024-02-15T07:30:53;101872.03;;;13.81;86.70
61337;BME280;47212;41.326;2.104;2024-02-15T07:36:06;101880.25;;;13.81;86.27
61337;BME280;47212;41.326;2.104;2024-02-15T07:41:09;101889.03;;;13.83;86.72
61337;BME280;47212;41.326;2.104;2024-02-15T07:46:15;101880.81;;;13.83;86.47
61337;BME280;47212;41.326;2.104;2024-02-15T07:51:27;101885.31;;;13.89;86.02
61337;BME280;47212;41.326;2.104;2024-02-15T07:56:29;101891.91;;;13.93;86.22
61337;BME280;47212;41.326;2.104;2024-02-15T08:01:33;101884.00;;;13.97;87.60
61337;BME280;47212;41.326;2.104;2024-02-15T08:06:35;101890.94;;;14.05;87.42
61337;BME280;47212;41.326;2.104;2024-02-15T08:11:41;101895.63;;;14.09;88.26
61337;BME280;47212;41.326;2.104;2024-02-15T08:16:45;101902.00;;;14.15;86.04
61337;BME280;47212;41.326;2.104;2024-02-15T08:21:47;101902.34;;;14.23;83.83
61337;BME280;47212;41.326;2.104;2024-02-15T08:26:53;101911.50;;;14.34;81.38
61337;BME280;47212;41.326;2.104;2024-02-15T08:31:55;101928.13;;;14.49;79.59
61337;BME280;47212;41.326;2.104;2024-02-15T08:36:58;101922.81;;;14.70;78.63
61337;BME280;47212;41.326;2.104;2024-02-15T08:42:00;101936.72;;;14.90;77.56
61337;BME280;47212;41.326;2.104;2024-02-15T08:47:03;101937.44;;;15.12;76.92
61337;BME280;47212;41.326;2.104;2024-02-15T08:52:12;101935.09;;;15.31;75.76
61337;BME280;47212;41.326;2.104;2024-02-15T08:57:21;101936.03;;;15.52;75.16
61337;BME280;47212;41.326;2.104;2024-02-15T09:02:23;101925.25;;;15.82;74.38
61337;BME280;47212;41.326;2.104;2024-02-15T09:07:26;101928.06;;;16.08;73.13
61337;BME280;47212;41.326;2.104;2024-02-15T09:12:29;101930.88;;;16.28;72.82
61337;BME280;47212;41.326;2.104;2024-02-15T09:17:34;101924.84;;;16.41;71.69
61337;BME280;47212;41.326;2.104;2024-02-15T09:22:52;101926.00;;;16.50;69.80
61337;BME280;47212;41.326;2.104;2024-02-15T09:27:54;101922.44;;;16.65;70.38
61337;BME280;47212;41.326;2.104;2024-02-15T09:32:56;101924.38;;;16.80;69.82
61337;BME280;47212;41.326;2.104;2024-02-15T09:37:58;101918.03;;;17.00;69.17
61337;BME280;47212;41.326;2.104;2024-02-15T09:43:01;101907.81;;;17.20;68.47
61337;BME280;47212;41.326;2.104;2024-02-15T09:48:05;101901.19;;;17.47;67.18
61337;BME280;47212;41.326;2.104;2024-02-15T09:53:20;101897.25;;;17.68;66.60
61337;BME280;47212;41.326;2.104;2024-02-15T09:58:23;101892.28;;;17.75;66.15
61337;BME280;47212;41.326;2.104;2024-02-15T10:03:28;101899.41;;;17.81;66.11
61337;BME280;47212;41.326;2.104;2024-02-15T10:08:38;101895.00;;;17.80;66.18
61337;BME280;47212;41.326;2.104;2024-02-15T10:13:42;101891.09;;;17.92;66.21
61337;BME280;47212;41.326;2.104;2024-02-15T10:18:47;101896.47;;;18.12;65.64
61337;BME280;47212;41.326;2.104;2024-02-15T10:24:10;101886.13;;;18.38;63.56
61337;BME280;47212;41.326;2.104;2024-02-15T10:29:13;101888.53;;;18.50;65.83
61337;BME280;47212;41.326;2.104;2024-02-15T10:34:22;101884.31;;;18.62;66.52
61337;BME280;47212;41.326;2.104;2024-02-15T10:39:25;101879.94;;;18.90;66.22
61337;BME280;47212;41.326;2.104;2024-02-15T10:44:29;101885.69;;;19.23;65.47
61337;BME280;47212;41.326;2.104;2024-02-15T10:49:33;101876.00;;;19.49;65.36
61337;BME280;47212;41.326;2.104;2024-02-15T10:55:18;101874.25;;;19.58;61.98
61337;BME280;47212;41.326;2.104;2024-02-15T11:00:24;101867.47;;;19.69;62.15
61337;BME280;47212;41.326;2.104;2024-02-15T11:05:38;101858.91;;;19.90;60.17
61337;BME280;47212;41.326;2.104;2024-02-15T11:10:42;101849.91;;;20.03;59.41
61337;BME280;47212;41.326;2.104;2024-02-15T11:15:46;101844.69;;;20.01;58.78
61337;BME280;47212;41.326;2.104;2024-02-15T11:20:53;101832.31;;;19.94;58.63
61337;BME280;47212;41.326;2.104;2024-02-15T11:26:02;101825.63;;;20.00;58.68
61337;BME280;47212;41.326;2.104;2024-02-15T11:31:09;101811.28;;;19.98;58.67
61337;BME280;47212;41.326;2.104;2024-02-15T11:36:12;101796.63;;;20.16;57.59
61337;BME280;47212;41.326;2.104;2024-02-15T11:41:18;101782.66;;;20.59;55.45
61337;BME280;47212;41.326;2.104;2024-02-15T11:46:21;101773.97;;;20.79;55.26
61337;BME280;47212;41.326;2.104;2024-02-15T11:51:33;101769.28;;;20.93;51.96
61337;BME280;47212;41.326;2.104;2024-02-15T11:56:56;101761.81;;;21.08;47.89
61337;BME280;47212;41.326;2.104;2024-02-15T12:02:13;101752.78;;;21.29;51.81
61337;BME280;47212;41.326;2.104;2024-02-15T12:07:33;101744.44;;;21.43;50.03
61337;BME280;47212;41.326;2.104;2024-02-15T12:12:54;101740.81;;;21.56;49.39
61337;BME280;47212;41.326;2.104;2024-02-15T12:18:17;101735.66;;;21.63;48.64
61337;BME280;47212;41.326;2.104;2024-02-15T12:23:48;101730.41;;;21.76;47.78
61337;BME280;47212;41.326;2.104;2024-02-15T12:28:53;101724.56;;;21.41;53.89
61337;BME280;47212;41.326;2.104;2024-02-15T12:34:24;101703.75;;;20.48;60.68
61337;BME280;47212;41.326;2.104;2024-02-15T12:39:26;101706.22;;;19.84;60.83
61337;BME280;47212;41.326;2.104;2024-02-15T12:44:30;101700.69;;;19.28;62.55
61337;BME280;47212;41.326;2.104;2024-02-15T12:49:38;101696.66;;;19.20;62.69
61337;BME280;47212;41.326;2.104;2024-02-15T12:54:47;101688.53;;;19.29;62.98
61337;BME280;47212;41.326;2.104;2024-02-15T12:59:50;101688.69;;;19.37;62.74
61337;BME280;47212;41.326;2.104;2024-02-15T13:04:57;101681.13;;;19.24;62.72
61337;BME280;47212;41.326;2.104;2024-02-15T13:10:00;101676.81;;;18.94;61.91
61337;BME280;47212;41.326;2.104;2024-02-15T13:15:03;101661.47;;;18.88;61.94
61337;BME280;47212;41.326;2.104;2024-02-15T13:20:07;101650.91;;;18.71;62.62
61337;BME280;47212;41.326;2.104;2024-02-15T13:25:15;101642.41;;;18.68;62.77
61337;BME280;47212;41.326;2.104;2024-02-15T13:30:23;101632.81;;;18.60;61.52
61337;BME280;47212;41.326;2.104;2024-02-15T13:35:30;101632.41;;;18.48;61.65
61337;BME280;47212;41.326;2.104;2024-02-15T13:40:32;101626.84;;;18.29;62.21
61337;BME280;47212;41.326;2.104;2024-02-15T13:45:41;101610.91;;;18.26;60.62
61337;BME280;47212;41.326;2.104;2024-02-15T13:50:44;101609.59;;;18.42;60.48
61337;BME280;47212;41.326;2.104;2024-02-15T13:55:47;101610.38;;;18.48;60.26
61337;BME280;47212;41.326;2.104;2024-02-15T14:00:50;101602.25;;;18.57;60.67
61337;BME280;47212;41.326;2.104;2024-02-15T14:05:54;101601.88;;;18.68;60.63
61337;BME280;47212;41.326;2.104;2024-02-15T14:11:01;101597.63;;;18.76;59.74
61337;BME280;47212;41.326;2.104;2024-02-15T14:16:05;101586.06;;;18.74;59.07
61337;BME280;47212;41.326;2.104;2024-02-15T14:21:10;101569.66;;;18.64;58.59
61337;BME280;47212;41.326;2.104;2024-02-15T14:26:13;101573.56;;;18.58;58.67
61337;BME280;47212;41.326;2.104;2024-02-15T14:31:20;101568.88;;;18.58;58.85
61337;BME280;47212;41.326;2.104;2024-02-15T14:36:41;101567.47;;;18.61;58.88
61337;BME280;47212;41.326;2.104;2024-02-15T14:41:45;101557.84;;;18.58;58.18
61337;BME280;47212;41.326;2.104;2024-02-15T14:46:54;101562.03;;;18.56;57.56
61337;BME280;47212;41.326;2.104;2024-02-15T14:51:57;101561.50;;;18.54;58.14
61337;BME280;47212;41.326;2.104;2024-02-15T14:56:59;101560.81;;;18.43;57.92
61337;BME280;47212;41.326;2.104;2024-02-15T15:02:01;101548.41;;;18.22;57.59
61337;BME280;47212;41.326;2.104;2024-02-15T15:07:13;101557.41;;;18.03;55.84
61337;BME280;47212;41.326;2.104;2024-02-15T15:12:34;101547.91;;;17.91;55.74
61337;BME280;47212;41.326;2.104;2024-02-15T15:17:41;101536.88;;;17.91;61.59
61337;BME280;47212;41.326;2.104;2024-02-15T15:22:45;101551.63;;;17.76;64.57
61337;BME280;47212;41.326;2.104;2024-02-15T15:27:47;101543.59;;;17.50;67.60
61337;BME280;47212;41.326;2.104;2024-02-15T15:32:49;101546.91;;;17.47;69.18
61337;BME280;47212;41.326;2.104;2024-02-15T15:37:52;101542.31;;;17.38;69.20
61337;BME280;47212;41.326;2.104;2024-02-15T15:42:55;101538.56;;;17.24;70.79
61337;BME280;47212;41.326;2.104;2024-02-15T15:47:57;101539.47;;;17.14;71.64
61337;BME280;47212;41.326;2.104;2024-02-15T15:52:59;101543.63;;;17.11;71.99
61337;BME280;47212;41.326;2.104;2024-02-15T15:58:02;101543.66;;;17.06;72.85
61337;BME280;47212;41.326;2.104;2024-02-15T16:03:04;101540.94;;;17.01;73.30
61337;BME280;47212;41.326;2.104;2024-02-15T16:08:11;101553.63;;;16.97;73.24
61337;BME280;47212;41.326;2.104;2024-02-15T16:13:13;101556.91;;;16.99;73.42
61337;BME280;47212;41.326;2.104;2024-02-15T16:18:16;101548.66;;;16.99;73.27
61337;BME280;47212;41.326;2.104;2024-02-15T16:23:19;101561.84;;;17.02;73.52
61337;BME280;47212;41.326;2.104;2024-02-15T16:28:21;101567.88;;;17.04;73.57
61337;BME280;47212;41.326;2.104;2024-02-15T16:33:24;101567.31;;;17.07;74.38
61337;BME280;47212;41.326;2.104;2024-02-15T16:38:28;101582.16;;;17.06;74.17
61337;BME280;47212;41.326;2.104;2024-02-15T16:43:33;101579.19;;;16.98;73.55
61337;BME280;47212;41.326;2.104;2024-02-15T16:48:36;101574.88;;;16.86;74.45
61337;BME280;47212;41.326;2.104;2024-02-15T16:53:38;101572.44;;;16.80;74.36
61337;BME280;47212;41.326;2.104;2024-02-15T16:58:41;101569.72;;;16.75;74.79
61337;BME280;47212;41.326;2.104;2024-02-15T17:03:43;101573.31;;;16.70;75.04
61337;BME280;47212;41.326;2.104;2024-02-15T17:08:45;101589.25;;;16.63;75.94
61337;BME280;47212;41.326;2.104;2024-02-15T17:13:50;101592.31;;;16.56;76.46
61337;BME280;47212;41.326;2.104;2024-02-15T17:18:54;101589.03;;;16.54;76.94
61337;BME280;47212;41.326;2.104;2024-02-15T17:23:57;101598.66;;;16.52;77.41
61337;BME280;47212;41.326;2.104;2024-02-15T17:29:00;101604.44;;;16.50;77.71
61337;BME280;47212;41.326;2.104;2024-02-15T17:34:11;101615.97;;;16.47;77.82
61337;BME280;47212;41.326;2.104;2024-02-15T17:39:18;101630.25;;;16.44;78.18
61337;BME280;47212;41.326;2.104;2024-02-15T17:44:21;101631.91;;;16.40;78.45
61337;BME280;47212;41.326;2.104;2024-02-15T17:49:24;101640.72;;;16.37;78.79
61337;BME280;47212;41.326;2.104;2024-02-15T17:54:28;101639.63;;;16.33;79.11
61337;BME280;47212;41.326;2.104;2024-02-15T17:59:33;101643.50;;;16.27;79.18
61337;BME280;47212;41.326;2.104;2024-02-15T18:04:35;101635.00;;;16.23;79.38
61337;BME280;47212;41.326;2.104;2024-02-15T18:09:38;101638.84;;;16.22;79.68
61337;BME280;47212;41.326;2.104;2024-02-15T18:14:41;101625.94;;;16.18;79.16
61337;BME280;47212;41.326;2.104;2024-02-15T18:19:44;101631.97;;;16.15;79.33
61337;BME280;47212;41.326;2.104;2024-02-15T18:24:50;101630.91;;;16.11;79.92
61337;BME280;47212;41.326;2.104;2024-02-15T18:29:55;101627.59;;;16.09;79.19
61337;BME280;47212;41.326;2.104;2024-02-15T18:34:57;101643.53;;;16.07;79.10
61337;BME280;47212;41.326;2.104;2024-02-15T18:40:03;101645.19;;;16.03;79.37
61337;BME280;47212;41.326;2.104;2024-02-15T18:45:25;101663.88;;;16.01;79.58
61337;BME280;47212;41.326;2.104;2024-02-15T18:50:27;101664.41;;;15.98;79.76
61337;BME280;47212;41.326;2.104;2024-02-15T18:55:30;101662.22;;;15.95;79.34
61337;BME280;47212;41.326;2.104;2024-02-15T19:00:36;101656.19;;;15.92;79.45
61337;BME280;47212;41.326;2.104;2024-02-15T19:06:00;101657.84;;;15.88;79.35
61337;BME280;47212;41.326;2.104;2024-02-15T19:11:04;101654.53;;;15.86;79.89
61337;BME280;47212;41.326;2.104;2024-02-15T19:16:07;101650.69;;;15.82;79.56
61337;BME280;47212;41.326;2.104;2024-02-15T19:21:10;101647.41;;;15.80;79.69
61337;BME280;47212;41.326;2.104;2024-02-15T19:26:16;101647.97;;;15.77;79.60
61337;BME280;47212;41.326;2.104;2024-02-15T19:31:18;101635.59;;;15.75;79.33
61337;BME280;47212;41.326;2.104;2024-02-15T19:36:20;101623.53;;;15.71;79.42
61337;BME280;47212;41.326;2.104;2024-02-15T19:41:26;101616.69;;;15.68;79.82
61337;BME280;47212;41.326;2.104;2024-02-15T19:46:35;101586.50;;;15.63;80.05
61337;BME280;47212;41.326;2.104;2024-02-15T19:51:45;101586.50;;;15.63;79.62
61337;BME280;47212;41.326;2.104;2024-02-15T19:56:52;101588.69;;;15.61;79.54
61337;BME280;47212;41.326;2.104;2024-02-15T20:01:55;101587.28;;;15.58;79.41
61337;BME280;47212;41.326;2.104;2024-02-15T20:06:57;101576.81;;;15.55;79.25
61337;BME280;47212;41.326;2.104;2024-02-15T20:11:59;101580.94;;;15.53;79.43
61337;BME280;47212;41.326;2.104;2024-02-15T20:17:02;101587.53;;;15.52;79.37
61337;BME280;47212;41.326;2.104;2024-02-15T20:22:06;101572.72;;;15.53;78.93
61337;BME280;47212;41.326;2.104;2024-02-15T20:27:10;101577.13;;;15.59;79.18
61337;BME280;47212;41.326;2.104;2024-02-15T20:32:13;101586.47;;;15.58;78.79
61337;BME280;47212;41.326;2.104;2024-02-15T20:37:15;101585.88;;;15.51;78.85
61337;BME280;47212;41.326;2.104;2024-02-15T20:42:19;101591.38;;;15.46;79.42
61337;BME280;47212;41.326;2.104;2024-02-15T20:47:22;101579.31;;;15.42;79.71
61337;BME280;47212;41.326;2.104;2024-02-15T20:52:26;101572.72;;;15.38;79.59
61337;BME280;47212;41.326;2.104;2024-02-15T20:57:33;101570.78;;;15.33;79.87
61337;BME280;47212;41.326;2.104;2024-02-15T21:02:36;101577.66;;;15.30;79.64
61337;BME280;47212;41.326;2.104;2024-02-15T21:07:45;101574.63;;;15.27;80.25
61337;BME280;47212;41.326;2.104;2024-02-15T21:12:47;101566.13;;;15.23;80.74
61337;BME280;47212;41.326;2.104;2024-02-15T21:17:50;101563.66;;;15.22;81.13
61337;BME280;47212;41.326;2.104;2024-02-15T21:22:52;101564.47;;;15.22;81.43
61337;BME280;47212;41.326;2.104;2024-02-15T21:28:02;101546.09;;;15.18;81.71
61337;BME280;47212;41.326;2.104;2024-02-15T21:33:09;101549.13;;;15.16;81.92
61337;BME280;47212;41.326;2.104;2024-02-15T21:38:11;101555.16;;;15.13;82.25
61337;BME280;47212;41.326;2.104;2024-02-15T21:43:13;101560.91;;;15.12;82.58
61337;BME280;47212;41.326;2.104;2024-02-15T21:48:19;101568.84;;;15.08;82.98
61337;BME280;47212;41.326;2.104;2024-02-15T21:53:25;101571.31;;;15.10;83.72
61337;BME280;47212;41.326;2.104;2024-02-15T21:58:31;101565.56;;;15.11;83.45
61337;BME280;47212;41.326;2.104;2024-02-15T22:03:33;101557.88;;;15.08;83.88
61337;BME280;47212;41.326;2.104;2024-02-15T22:09:29;101553.50;;;15.02;83.94
61337;BME280;47212;41.326;2.104;2024-02-15T22:14:37;101557.88;;;14.98;84.65
61337;BME280;47212;41.326;2.104;2024-02-15T22:19:43;101552.94;;;14.95;84.72
61337;BME280;47212;41.326;2.104;2024-02-15T22:25:05;101554.03;;;14.94;85.99
61337;BME280;47212;41.326;2.104;2024-02-15T22:30:24;101550.19;;;14.90;86.02
61337;BME280;47212;41.326;2.104;2024-02-15T22:41:07;101553.75;;;14.85;85.79
61337;BME280;47212;41.326;2.104;2024-02-15T22:46:19;101557.28;;;14.81;84.27
61337;BME280;47212;41.326;2.104;2024-02-15T22:51:44;101552.06;;;14.74;83.45
61337;BME280;47212;41.326;2.104;2024-02-15T22:56:50;101548.75;;;14.67;82.94
61337;BME280;47212;41.326;2.104;2024-02-15T23:02:00;101545.69;;;14.58;82.46
61337;BME280;47212;41.326;2.104;2024-02-15T23:07:03;101543.50;;;14.55;82.15
61337;BME280;47212;41.326;2.104;2024-02-15T23:12:38;101536.09;;;14.51;82.03
61337;BME280;47212;41.326;2.104;2024-02-15T23:17:46;101541.28;;;14.47;81.99
61337;BME280;47212;41.326;2.104;2024-02-15T23:22:53;101541.81;;;14.44;82.10
61337;BME280;47212;41.326;2.104;2024-02-15T23:27:59;101534.94;;;14.42;81.73
61337;BME280;47212;41.326;2.104;2024-02-15T23:33:06;101539.59;;;14.41;81.59
61337;BME280;47212;41.326;2.104;2024-02-15T23:38:13;101542.91;;;14.43;81.64
61337;BME280;47212;41.326;2.104;2024-02-15T23:43:38;101540.72;;;14.45;82.32
61337;BME280;47212;41.326;2.104;2024-02-15T23:48:40;101536.03;;;14.41;81.21
61337;BME280;47212;41.326;2.104;2024-02-15T23:53:44;101539.84;;;14.34;79.87
61337;BME280;47212;41.326;2.104;2024-02-15T23:58:51;101534.06;;;14.26;78.85
